Time;durP1;ratioP1;P1;durP2;ratioP2;P2;SDS_P1;SDS_P2;PMS_P1;PMS_P2;Temp;Humidity;BMP_temperature;BMP_pressure;BME280_temperature;BME280_humidity;BME280_pressure;Samples;Min_cycle;Max_cycle;Signal;HPM_P1;HPM_P2
2022/06/11 00:01:56;;;;;;;10.00;4.82;;;;;;;21.34;55.92;101650.22;5006333;28;20518;-69
2022/06/11 00:04:25;;;;;;;5.72;4.15;;;;;;;21.32;56.25;101647.66;5009179;28;20454;-69
2022/06/11 00:06:56;;;;;;;8.15;4.70;;;;;;;21.39;55.80;101650.69;4997172;28;20057;-69
2022/06/11 00:09:24;;;;;;;9.63;4.60;;;;;;;21.75;54.89;101650.28;5005608;28;20041;-70
2022/06/11 00:11:52;;;;;;;9.63;4.40;;;;;;;21.76;55.04;101649.31;5006865;28;20042;-69
2022/06/11 00:14:19;;;;;;;6.38;4.65;;;;;;;21.20;56.62;101650.50;5005107;28;20060;-69
2022/06/11 00:16:46;;;;;;;9.43;4.80;;;;;;;20.59;58.50;101654.53;5005782;28;20058;-69
2022/06/11 00:19:13;;;;;;;8.38;4.80;;;;;;;20.83;57.86;101657.94;5004611;28;20050;-69
2022/06/11 00:21:44;;;;;;;11.68;5.40;;;;;;;20.75;57.69;101652.34;5007531;28;20457;-69
2022/06/11 00:24:11;;;;;;;12.60;5.07;;;;;;;21.13;56.73;101654.66;5004907;28;20125;-69
2022/06/11 00:26:42;;;;;;;10.93;4.95;;;;;;;21.10;56.51;101657.53;5006719;28;20045;-69
2022/06/11 00:29:10;;;;;;;5.78;4.70;;;;;;;21.35;55.83;101655.44;5017928;28;20045;-69
2022/06/11 00:31:37;;;;;;;11.38;5.32;;;;;;;21.04;57.25;101655.34;5005016;28;20569;-69
2022/06/11 00:34:03;;;;;;;10.07;5.22;;;;;;;20.55;58.23;101655.75;5003616;28;20049;-69
2022/06/11 00:36:30;;;;;;;7.65;5.10;;;;;;;20.29;58.83;101652.47;5007432;28;20417;-69
2022/06/11 00:38:57;;;;;;;8.68;5.22;;;;;;;19.97;60.09;101651.41;5023895;28;20549;-69
2022/06/11 00:41:26;;;;;;;9.50;4.90;;;;;;;19.74;60.66;101651.34;5026871;28;20490;-69
2022/06/11 00:43:54;;;;;;;8.63;5.50;;;;;;;20.09;59.65;101640.69;5026916;28;20053;-69
2022/06/11 00:46:54;;;;;;;9.55;5.05;;;;;;;19.66;60.79;101652.91;5025380;28;20421;-69
2022/06/11 00:49:40;;;;;;;8.30;5.43;;;;;;;19.81;60.66;101647.25;5024134;28;20123;-69
2022/06/11 00:52:20;;;;;;;10.00;5.78;;;;;;;19.44;61.88;101643.84;5008195;28;20093;-69
2022/06/11 00:54:50;;;;;;;10.55;5.68;;;;;;;18.88;64.35;101653.28;5004478;28;20139;-69
2022/06/11 00:57:17;;;;;;;12.18;6.03;;;;;;;18.94;64.36;101641.38;5004917;28;20133;-69
2022/06/11 00:59:50;;;;;;;8.32;5.82;;;;;;;18.61;64.92;101643.78;5005449;28;20045;-69
2022/06/11 01:02:16;;;;;;;11.15;5.93;;;;;;;18.61;64.84;101639.31;5007703;28;20145;-69
2022/06/11 01:04:50;;;;;;;11.32;5.88;;;;;;;18.54;64.85;101640.72;5006460;28;20050;-74
2022/06/11 01:07:49;;;;;;;10.45;5.82;;;;;;;18.36;65.21;101642.84;5008675;28;20697;-74
2022/06/11 01:10:35;;;;;;;9.25;6.18;;;;;;;18.44;65.39;101637.81;5018130;28;20041;-74
2022/06/11 01:13:11;;;;;;;8.45;6.57;;;;;;;18.36;64.97;101634.88;5020398;28;20049;-75
2022/06/11 01:15:43;;;;;;;8.30;6.00;;;;;;;18.23;65.94;101636.66;5023328;28;20049;-75
2022/06/11 01:18:23;;;;;;;12.57;6.35;;;;;;;18.06;66.65;101634.34;5022529;28;20583;-74
2022/06/11 01:20:58;;;;;;;11.50;6.57;;;;;;;18.28;66.25;101639.88;5023056;28;20138;-74
2022/06/11 01:23:47;;;;;;;10.95;6.70;;;;;;;18.93;63.21;101632.53;5022279;28;20041;-74
2022/06/11 01:26:34;;;;;;;11.00;6.85;;;;;;;18.59;63.92;101633.25;5025307;28;20045;-74
2022/06/11 01:29:13;;;;;;;10.02;6.68;;;;;;;17.98;67.05;101634.88;5004964;28;20104;-75
2022/06/11 01:31:47;;;;;;;10.88;6.43;;;;;;;18.04;67.29;101628.28;5006354;28;20050;-74
2022/06/11 01:34:22;;;;;;;12.70;6.47;;;;;;;17.93;67.93;101630.81;5009377;28;20097;-74
2022/06/11 01:36:53;;;;;;;7.85;6.25;;;;;;;17.95;67.78;101623.59;5012464;28;20119;-74
2022/06/11 01:39:23;;;;;;;9.77;6.32;;;;;;;17.81;68.22;101629.84;5022672;28;20563;-74
2022/06/11 01:41:58;;;;;;;13.93;7.05;;;;;;;17.78;69.36;101634.50;5023282;28;20290;-74
2022/06/11 01:44:28;;;;;;;11.10;7.20;;;;;;;18.02;68.31;101624.03;5023288;28;20099;-74
2022/06/11 01:46:57;;;;;;;10.02;6.40;;;;;;;18.19;68.12;101623.72;5025564;28;20395;-74
2022/06/11 01:49:40;;;;;;;12.23;7.20;;;;;;;18.47;67.31;101623.50;5023026;28;20091;-74
2022/06/11 01:52:18;;;;;;;18.10;8.05;;;;;;;18.43;66.89;101624.66;5025175;28;20409;-74
2022/06/11 01:54:55;;;;;;;11.48;7.95;;;;;;;18.61;66.62;101622.53;5024783;28;20052;-74
2022/06/11 01:57:35;;;;;;;11.85;8.10;;;;;;;18.68;65.91;101624.66;5004893;28;20053;-74
2022/06/11 02:00:17;;;;;;;12.18;8.27;;;;;;;18.58;66.36;101620.09;5008823;28;20046;-74
2022/06/11 02:02:54;;;;;;;;;;;;;;;18.54;66.44;101615.97;5008394;28;20103;-74
2022/06/11 02:05:25;;;;;;;10.73;7.70;;;;;;;18.68;66.24;101621.13;5004722;28;19922;-74
2022/06/11 02:08:00;;;;;;;11.65;7.50;;;;;;;18.84;65.38;101614.63;4993736;28;20057;-73
2022/06/11 02:10:34;;;;;;;9.57;7.45;;;;;;;19.04;64.68;101614.97;4987932;28;20561;-74
2022/06/11 02:13:05;;;;;;;11.95;7.60;;;;;;;19.13;64.25;101612.50;4981587;28;20096;-75
2022/06/11 02:15:37;;;;;;;10.20;7.30;;;;;;;19.29;63.73;101605.06;4985196;28;20474;-73
2022/06/11 02:18:08;;;;;;;11.40;7.57;;;;;;;19.85;61.74;101600.81;4983033;28;20100;-74
2022/06/11 02:20:39;;;;;;;11.07;7.80;;;;;;;19.94;60.96;101601.94;4983948;28;20422;-73
2022/06/11 02:23:09;;;;;;;12.18;7.55;;;;;;;19.99;60.56;101596.25;4999361;28;20100;-73
2022/06/11 02:25:38;;;;;;;12.70;8.10;;;;;;;19.93;61.57;101601.06;5002174;28;20049;-73
2022/06/11 02:28:09;;;;;;;13.07;7.32;;;;;;;19.99;60.88;101599.78;5001565;28;20045;-73
2022/06/11 02:30:40;;;;;;;9.07;7.13;;;;;;;19.59;62.59;101601.09;5002131;28;20064;-73
2022/06/11 02:33:10;;;;;;;10.13;6.70;;;;;;;19.50;62.72;101604.47;5003861;28;20069;-73
2022/06/11 02:35:40;;;;;;;11.75;6.95;;;;;;;19.16;64.01;101601.63;5013043;28;20104;-73
2022/06/11 02:38:10;;;;;;;12.77;7.57;;;;;;;19.56;61.49;101602.19;5002703;28;20556;-73
2022/06/11 02:40:41;;;;;;;10.27;7.53;;;;;;;19.76;60.98;101595.34;5002267;28;20530;-73
2022/06/11 02:43:07;;;;;;;10.77;6.97;;;;;;;19.23;62.72;101596.69;5022342;28;20049;-73
2022/06/11 02:45:34;;;;;;;11.75;7.00;;;;;;;19.24;62.84;101609.03;5022944;28;20497;-73
2022/06/11 02:48:00;;;;;;;11.63;7.72;;;;;;;19.48;61.82;101601.91;5024251;28;20053;-73
2022/06/11 02:50:32;;;;;;;10.63;7.70;;;;;;;19.08;62.68;101603.16;5020034;28;20054;-73
2022/06/11 02:53:01;;;;;;;13.18;8.00;;;;;;;18.97;63.29;101609.25;5003618;28;20111;-73
2022/06/11 02:55:30;;;;;;;10.15;7.18;;;;;;;19.39;61.71;101603.44;5002448;28;20046;-73
2022/06/11 02:57:56;;;;;;;10.73;7.20;;;;;;;19.39;61.80;101603.44;5002728;28;20046;-73
2022/06/11 03:00:27;;;;;;;11.98;7.13;;;;;;;19.35;61.98;101599.31;5003516;28;20045;-73
2022/06/11 03:02:54;;;;;;;9.35;6.88;;;;;;;19.24;61.96;101607.22;5003208;28;20053;-73
2022/06/11 03:05:23;;;;;;;13.13;7.28;;;;;;;19.04;62.31;101615.81;5006824;28;20099;-73
2022/06/11 03:07:51;;;;;;;9.60;6.65;;;;;;;18.80;63.15;101614.94;4989193;28;20569;-73
2022/06/11 03:10:20;;;;;;;9.90;6.97;;;;;;;18.66;63.82;101612.44;4984001;28;20058;-73
2022/06/11 03:12:47;;;;;;;9.15;6.47;;;;;;;18.59;64.16;101612.00;4984253;28;20109;-73
2022/06/11 03:15:15;;;;;;;16.30;6.72;;;;;;;18.56;64.49;101614.03;4984324;28;20038;-73
2022/06/11 03:17:42;;;;;;;11.35;6.78;;;;;;;18.76;64.41;101610.81;5002248;28;20435;-74
2022/06/11 03:20:10;;;;;;;8.63;6.45;;;;;;;18.76;63.85;101619.63;5009741;28;20092;-73
2022/06/11 03:22:36;;;;;;;13.10;6.63;;;;;;;19.02;62.92;101616.91;5006860;28;20465;-72
2022/06/11 03:25:05;;;;;;;10.18;6.55;;;;;;;18.86;63.07;101617.16;5015705;28;20049;-72
2022/06/11 03:27:32;;;;;;;13.25;6.93;;;;;;;18.51;64.24;101622.34;5006313;28;20461;-71
2022/06/11 03:29:58;;;;;;;10.30;6.35;;;;;;;18.77;64.18;101620.50;5005860;28;20476;-72
2022/06/11 03:32:24;;;;;;;9.68;6.28;;;;;;;18.62;64.95;101621.59;5007769;28;20054;-72
2022/06/11 03:34:51;;;;;;;12.07;6.90;;;;;;;19.31;62.74;101610.28;5006237;28;20042;-71
2022/06/11 03:37:18;;;;;;;10.02;6.53;;;;;;;19.23;62.28;101618.81;5005926;28;20111;-71
2022/06/11 03:39:45;;;;;;;15.73;6.32;;;;;;;18.97;63.30;101619.88;5006665;28;20045;-72
2022/06/11 03:42:13;;;;;;;10.75;6.60;;;;;;;18.69;63.81;101620.19;5009299;28;20568;-72
2022/06/11 03:44:40;;;;;;;8.88;6.28;;;;;;;18.83;63.81;101617.38;5006788;28;20050;-73
2022/06/11 03:47:06;;;;;;;14.50;7.18;;;;;;;18.30;65.47;101627.31;5004271;28;20049;-73
2022/06/11 03:49:33;;;;;;;10.98;6.43;;;;;;;18.57;64.68;101624.56;5017887;28;20045;-73
2022/06/11 03:52:00;;;;;;;10.20;6.03;;;;;;;18.27;65.68;101619.56;5018250;28;20104;-73
2022/06/11 03:54:27;;;;;;;11.80;6.82;;;;;;;18.29;65.96;101625.59;5007061;28;20459;-73
2022/06/11 03:56:54;;;;;;;9.75;6.20;;;;;;;18.61;64.93;101626.03;5006144;28;20041;-73
2022/06/11 03:59:23;;;;;;;12.40;6.20;;;;;;;18.69;64.85;101634.31;5005836;28;20049;-73
2022/06/11 04:01:50;;;;;;;11.40;7.07;;;;;;;18.46;65.09;101627.94;5007994;28;20045;-73
2022/06/11 04:04:19;;;;;;;13.45;5.93;;;;;;;18.79;65.12;101621.22;5005866;28;20042;-73
2022/06/11 04:06:50;;;;;;;9.05;5.90;;;;;;;18.85;64.45;101626.06;5007053;28;20560;-72
2022/06/11 04:09:19;;;;;;;6.78;5.97;;;;;;;18.94;63.72;101625.44;5006780;28;20608;-73
2022/06/11 04:11:46;;;;;;;7.18;5.63;;;;;;;19.14;62.95;101630.13;5006833;28;20042;-72
2022/06/11 04:14:12;;;;;;;11.25;5.55;;;;;;;19.54;61.93;101632.53;5020995;28;20099;-73
2022/06/11 04:16:43;;;;;;;7.60;5.38;;;;;;;19.56;61.82;101626.13;5013879;28;20053;-73
2022/06/11 04:19:17;;;;;;;7.35;5.35;;;;;;;19.10;63.09;101634.00;5015447;28;20446;-73
2022/06/11 04:21:45;;;;;;;8.10;5.55;;;;;;;19.21;62.52;101635.84;5024871;28;20057;-71
2022/06/11 04:24:12;;;;;;;10.18;5.55;;;;;;;19.08;62.99;101635.91;5016341;28;20077;-72
2022/06/11 04:26:42;;;;;;;7.82;5.18;;;;;;;19.85;60.84;101634.56;5008567;28;20045;-73
2022/06/11 04:29:14;;;;;;;11.02;5.47;;;;;;;19.73;60.74;101641.66;5006671;28;20396;-72
2022/06/11 04:31:43;;;;;;;5.82;4.90;;;;;;;19.27;62.14;101646.88;5013446;28;20131;-72
2022/06/11 04:34:10;;;;;;;9.32;5.25;;;;;;;19.11;63.09;101645.44;5016344;28;20399;-72
2022/06/11 04:36:37;;;;;;;7.35;5.32;;;;;;;18.71;64.66;101643.03;5005852;28;20061;-72
2022/06/11 04:39:05;;;;;;;8.20;4.88;;;;;;;19.55;62.61;101643.03;5006173;28;20046;-72
2022/06/11 04:41:32;;;;;;;9.48;5.03;;;;;;;19.86;61.26;101633.59;5005800;28;20522;-72
2022/06/11 04:43:58;;;;;;;8.18;5.25;;;;;;;20.23;59.98;101634.28;5020707;28;20045;-73
2022/06/11 04:46:25;;;;;;;11.25;5.32;;;;;;;20.34;59.17;101637.84;5027211;28;20484;-72
2022/06/11 04:48:53;;;;;;;9.60;5.40;;;;;;;19.55;61.73;101635.06;5018496;28;20045;-72
2022/06/11 04:51:20;;;;;;;7.18;4.82;;;;;;;19.65;61.01;101640.56;5005719;28;20108;-72
2022/06/11 04:53:48;;;;;;;10.18;5.38;;;;;;;19.63;61.06;101637.16;5006111;28;20085;-72
2022/06/11 04:56:18;;;;;;;8.18;4.90;;;;;;;19.98;60.37;101635.34;5004318;28;20501;-72
2022/06/11 04:58:45;;;;;;;8.25;5.20;;;;;;;19.24;63.18;101640.94;5004470;28;20042;-72
2022/06/11 05:01:12;;;;;;;6.95;4.85;;;;;;;19.36;63.00;101635.56;5006214;28;20046;-72
2022/06/11 05:03:39;;;;;;;11.38;5.22;;;;;;;19.62;61.71;101635.47;5005552;28;20457;-73
2022/06/11 05:06:08;;;;;;;8.25;4.55;;;;;;;19.98;60.14;101635.34;5004562;28;20041;-72
2022/06/11 05:08:35;;;;;;;6.38;4.47;;;;;;;19.47;61.63;101641.94;5006533;28;20096;-72
2022/06/11 05:11:04;;;;;;;11.57;5.30;;;;;;;19.87;61.54;101637.97;5005255;28;20830;-72
2022/06/11 05:13:31;;;;;;;7.60;4.60;;;;;;;20.19;59.45;101639.00;5004642;28;20076;-72
2022/06/11 05:15:58;;;;;;;9.02;4.88;;;;;;;20.20;59.32;101637.19;5017139;28;20416;-72
2022/06/11 05:18:26;;;;;;;13.43;5.00;;;;;;;20.23;59.03;101632.47;5014094;28;20048;-72
2022/06/11 05:20:52;;;;;;;7.20;4.43;;;;;;;20.00;60.08;101641.38;5005037;28;20104;-72
2022/06/11 05:23:22;;;;;;;11.85;4.60;;;;;;;20.07;60.23;101636.41;5004466;28;20050;-72
2022/06/11 05:25:49;;;;;;;6.88;4.45;;;;;;;20.20;59.10;101629.19;4995462;28;20065;-72
2022/06/11 05:28:19;;;;;;;8.10;4.18;;;;;;;20.26;59.03;101640.22;5004838;28;20042;-72
2022/06/11 05:30:46;;;;;;;11.07;4.88;;;;;;;19.63;60.68;101645.13;5012773;28;20042;-72
2022/06/11 05:33:13;;;;;;;6.50;4.43;;;;;;;19.55;60.88;101644.88;5025149;28;20045;-72
2022/06/11 05:35:40;;;;;;;6.53;4.20;;;;;;;19.98;59.93;101643.31;5023965;28;20503;-72
2022/06/11 05:38:10;;;;;;;7.13;4.28;;;;;;;20.30;59.31;101644.38;5024078;28;20103;-72
2022/06/11 05:40:41;;;;;;;8.38;4.95;;;;;;;21.13;57.58;101639.50;5017527;28;20073;-72
2022/06/11 05:43:08;;;;;;;9.18;4.28;;;;;;;21.35;57.35;101639.44;5010665;28;20116;-72
2022/06/11 05:45:38;;;;;;;6.80;4.03;;;;;;;21.50;56.94;101641.78;5005592;28;20054;-72
2022/06/11 05:48:07;;;;;;;11.25;4.07;;;;;;;21.28;55.86;101645.38;5003913;28;20120;-72
2022/06/11 05:50:38;;;;;;;5.47;3.80;;;;;;;20.96;57.61;101645.28;5005058;28;20568;-71
2022/06/11 05:53:06;;;;;;;7.35;4.25;;;;;;;21.53;56.01;101646.88;5020978;28;20084;-71
2022/06/11 05:55:36;;;;;;;8.23;4.15;;;;;;;21.04;56.92;101647.34;5023359;28;20067;-72
2022/06/11 05:58:07;;;;;;;10.15;4.88;;;;;;;21.26;56.14;101645.50;5025198;28;20042;-71
2022/06/11 06:00:36;;;;;;;10.45;4.30;;;;;;;21.47;56.28;101640.19;5023292;28;20092;-71
2022/06/11 06:03:02;;;;;;;8.35;3.80;;;;;;;21.01;57.92;101647.59;5024934;28;20092;-71
2022/06/11 06:05:31;;;;;;;6.35;4.05;;;;;;;20.72;58.79;101647.28;5024628;28;20045;-71
2022/06/11 06:07:58;;;;;;;7.40;3.97;;;;;;;21.54;56.87;101635.22;5025039;28;20456;-72
2022/06/11 06:10:25;;;;;;;8.75;3.95;;;;;;;21.83;55.79;101638.97;5024601;28;20045;-72
2022/06/11 06:12:51;;;;;;;5.75;3.67;;;;;;;21.69;56.00;101641.94;5025071;28;20045;-72
2022/06/11 06:15:23;;;;;;;10.73;3.38;;;;;;;21.66;55.67;101647.53;5038972;28;20045;-70
2022/06/11 06:17:50;;;;;;;9.23;3.83;;;;;;;22.16;54.68;101646.78;5045537;28;20053;-71
2022/06/11 06:20:17;;;;;;;6.90;3.30;;;;;;;;;;5042966;28;20099;-71
2022/06/11 06:22:44;;;;;;;4.85;3.30;;;;;;;22.04;53.95;101647.00;5031986;28;20494;-70
2022/06/11 06:25:14;;;;;;;6.80;3.45;;;;;;;22.78;51.83;101644.00;5024623;28;20461;-72
2022/06/11 06:27:40;;;;;;;5.28;3.22;;;;;;;22.47;52.33;101650.31;5026867;28;20052;-71
2022/06/11 06:30:08;;;;;;;5.40;2.85;;;;;;;22.72;52.36;101644.56;5026309;28;20034;-71
2022/06/11 06:32:36;;;;;;;5.95;2.85;;;;;;;22.65;52.01;101648.69;5025372;28;20564;-71
2022/06/11 06:35:03;;;;;;;7.25;3.20;;;;;;;22.81;52.71;101648.22;5029025;28;20110;-71
2022/06/11 06:37:31;;;;;;;5.03;2.80;;;;;;;23.55;49.71;101643.28;5027313;28;20095;-71
2022/06/11 06:39:58;;;;;;;6.97;2.92;;;;;;;24.20;48.39;101642.56;5024515;28;20052;-72
2022/06/11 06:42:24;;;;;;;8.93;3.28;;;;;;;24.33;48.52;101644.88;5036363;28;20052;-72
2022/06/11 06:44:50;;;;;;;6.68;3.50;;;;;;;23.91;48.25;101641.75;5043046;28;20056;-71
2022/06/11 06:47:17;;;;;;;7.32;3.20;;;;;;;24.20;48.05;101646.03;5044628;28;20130;-72
2022/06/11 06:49:45;;;;;;;7.38;3.03;;;;;;;24.53;47.98;101641.16;5043885;28;20103;-71
2022/06/11 06:52:11;;;;;;;8.57;2.80;;;;;;;24.20;46.91;101651.41;5036176;28;20048;-73
2022/06/11 06:54:37;;;;;;;6.57;2.78;;;;;;;24.54;46.87;101643.69;5029541;28;20468;-73
2022/06/11 06:57:04;;;;;;;5.97;2.80;;;;;;;24.96;46.08;101638.69;5028251;28;20468;-73
2022/06/11 06:59:31;;;;;;;9.45;2.50;;;;;;;25.53;44.72;101633.94;5036810;28;20278;-73
2022/06/11 07:01:57;;;;;;;6.07;2.63;;;;;;;24.81;45.26;101640.16;5028511;28;20045;-70
2022/06/11 07:04:23;;;;;;;5.97;2.50;;;;;;;25.03;46.14;101641.63;5027868;28;20049;-66
2022/06/11 07:06:51;;;;;;;5.47;2.53;;;;;;;25.42;43.92;101643.06;5045487;28;20103;-66
2022/06/11 07:09:17;;;;;;;9.27;2.80;;;;;;;26.09;43.41;101638.88;5026394;28;20045;-66
2022/06/11 07:11:44;;;;;;;9.13;2.83;;;;;;;26.35;42.83;101647.00;5026575;28;20045;-65
2022/06/11 07:14:10;;;;;;;7.10;2.60;;;;;;;27.34;41.11;101651.59;5027441;28;20041;-65
2022/06/11 07:16:40;;;;;;;6.60;3.42;;;;;;;26.58;40.25;101646.28;5028348;28;20049;-65
2022/06/11 07:19:11;;;;;;;6.22;2.30;;;;;;;26.89;40.21;101648.44;5025724;28;20068;-65
2022/06/11 07:21:44;;;;;;;10.68;2.30;;;;;;;27.85;39.58;101645.09;5028035;28;20163;-65
2022/06/11 07:24:15;;;;;;;4.65;2.17;;;;;;;28.28;38.41;101634.91;5028984;28;20114;-65
2022/06/11 07:26:45;;;;;;;7.97;3.10;;;;;;;28.47;36.95;101640.78;5041980;28;20508;-65
2022/06/11 07:29:16;;;;;;;7.75;2.30;;;;;;;28.46;36.87;101641.78;5031264;28;20046;-65
2022/06/11 07:31:44;;;;;;;6.93;2.03;;;;;;;28.76;38.08;101644.72;5042689;28;20048;-65
2022/06/11 07:34:11;;;;;;;6.05;1.85;;;;;;;28.92;37.23;101642.81;5028002;28;20349;-66
2022/06/11 07:36:38;;;;;;;5.75;2.08;;;;;;;28.59;36.97;101640.38;5046914;28;20421;-65
2022/06/11 07:39:05;;;;;;;6.30;1.80;;;;;;;28.14;37.76;101646.41;5041634;28;20053;-66
2022/06/11 07:41:32;;;;;;;6.38;1.80;;;;;;;28.15;36.88;101643.56;5026215;28;20073;-65
2022/06/11 07:43:59;;;;;;;7.72;2.10;;;;;;;28.44;38.29;101649.22;5040426;28;20075;-66
2022/06/11 07:46:25;;;;;;;7.03;2.00;;;;;;;27.81;38.45;101651.81;5046948;28;20130;-66
2022/06/11 07:48:52;;;;;;;9.05;1.85;;;;;;;27.77;39.31;101647.78;5026489;28;20417;-66
2022/06/11 07:51:19;;;;;;;4.35;1.73;;;;;;;27.89;39.02;101651.81;5035183;28;20479;-65
2022/06/11 07:53:46;;;;;;;7.00;2.20;;;;;;;28.25;38.34;101654.16;5026499;28;20090;-65
2022/06/11 07:56:13;;;;;;;6.65;2.03;;;;;;;27.86;38.81;101659.41;5025558;28;20045;-65
2022/06/11 07:58:40;;;;;;;11.45;2.00;;;;;;;27.52;39.16;101663.09;5026934;28;20045;-65
2022/06/11 08:01:07;;;;;;;4.90;1.92;;;;;;;27.18;39.87;101659.63;5024795;28;20045;-66
2022/06/11 08:03:37;;;;;;;5.60;1.83;;;;;;;27.69;39.66;101655.84;5033369;28;20067;-65
2022/06/11 08:06:05;;;;;;;4.85;2.15;;;;;;;27.75;39.72;101659.75;5027690;28;20046;-65
2022/06/11 08:08:32;;;;;;;7.28;2.15;;;;;;;27.57;40.67;101663.44;5029093;28;20045;-65
2022/06/11 08:11:00;;;;;;;9.10;2.28;;;;;;;27.87;39.99;101661.91;5024184;28;20045;-65
2022/06/11 08:13:26;;;;;;;9.90;1.95;;;;;;;28.22;39.00;101665.28;5026022;28;20506;-65
2022/06/11 08:15:55;;;;;;;4.32;1.92;;;;;;;28.18;39.13;101650.47;5028916;28;20114;-65
2022/06/11 08:18:22;;;;;;;7.63;2.00;;;;;;;28.10;41.04;101650.47;5039901;28;20120;-65
2022/06/11 08:20:49;;;;;;;4.68;2.10;;;;;;;28.24;41.77;101650.59;5030357;28;20045;-65
2022/06/11 08:23:16;;;;;;;4.82;2.03;;;;;;;28.14;41.12;101654.50;5031949;28;20095;-65
2022/06/11 08:25:42;;;;;;;5.30;2.20;;;;;;;27.96;40.29;101655.53;5027647;28;20053;-65
2022/06/11 08:28:12;;;;;;;5.55;2.00;;;;;;;28.42;39.74;101653.94;5030592;28;20138;-65
2022/06/11 08:30:38;;;;;;;6.95;2.40;;;;;;;28.35;39.47;101660.19;5025860;28;20049;-65
2022/06/11 08:33:06;;;;;;;5.68;1.90;;;;;;;28.22;39.53;101659.88;5038675;28;20045;-65
2022/06/11 08:35:34;;;;;;;5.78;2.08;;;;;;;28.06;39.49;101655.31;5026104;28;20100;-65
2022/06/11 08:38:01;;;;;;;6.05;2.50;;;;;;;27.77;41.10;101660.41;5026724;28;20441;-65
2022/06/11 08:40:31;;;;;;;3.38;1.90;;;;;;;27.92;41.34;101664.13;5036358;28;20115;-66
2022/06/11 08:43:01;;;;;;;7.70;2.55;;;;;;;28.09;41.27;101654.16;5030431;28;20556;-66
2022/06/11 08:45:37;;;;;;;10.38;2.53;;;;;;;28.44;41.16;101651.06;5030053;28;20048;-66
2022/06/11 08:48:15;;;;;;;7.82;2.33;;;;;;;28.46;39.97;101651.72;5046048;28;20397;-66
2022/06/11 08:50:52;;;;;;;6.88;2.55;;;;;;;28.70;39.98;101662.47;5045286;28;20382;-67
2022/06/11 08:53:20;;;;;;;6.03;2.00;;;;;;;29.15;39.68;101658.22;5030541;28;20073;-67
2022/06/11 08:55:47;;;;;;;7.38;2.45;;;;;;;29.24;40.24;101657.97;5017361;28;20049;-66
2022/06/11 08:58:24;;;;;;;6.63;1.98;;;;;;;29.35;39.70;101654.03;5009361;28;20045;-67
2022/06/11 09:00:59;;;;;;;6.32;2.65;;;;;;;29.77;39.71;101659.81;5015264;28;20449;-67
2022/06/11 09:03:37;;;;;;;7.93;2.70;;;;;;;29.88;37.83;101658.56;5004319;28;20054;-67
2022/06/11 09:06:20;;;;;;;3.85;2.30;;;;;;;29.49;37.83;101661.38;5005088;28;20042;-67
2022/06/11 09:09:02;;;;;;;7.53;2.53;;;;;;;29.46;38.01;101661.72;5004218;28;20065;-67
2022/06/11 09:11:44;;;;;;;10.88;2.83;;;;;;;29.14;38.37;101660.06;5006059;28;20050;-67
2022/06/11 09:14:27;;;;;;;8.60;2.92;;;;;;;28.65;41.09;101659.41;5024636;28;20049;-67
2022/06/11 09:17:11;;;;;;;8.20;3.28;;;;;;;29.02;40.53;101664.16;5004872;28;20046;-66
2022/06/11 09:19:56;;;;;;;6.63;2.78;;;;;;;28.86;40.56;101675.06;5003931;28;20167;-66
2022/06/11 09:22:44;;;;;;;9.20;3.05;;;;;;;29.76;38.91;101666.22;5004317;28;20046;-66
2022/06/11 09:25:25;;;;;;;7.53;2.97;;;;;;;29.20;40.31;101667.44;5009887;28;20054;-66
2022/06/11 09:27:59;;;;;;;7.70;2.85;;;;;;;29.06;39.66;101672.75;5013338;28;20395;-67
2022/06/11 09:30:34;;;;;;;9.68;2.75;;;;;;;29.78;39.96;101676.88;5031574;28;20063;-67
2022/06/11 09:33:07;;;;;;;7.70;3.20;;;;;;;29.62;38.56;101677.84;5023612;28;20550;-67
2022/06/11 09:35:40;;;;;;;10.23;3.22;;;;;;;29.54;38.92;101667.06;5024591;28;20096;-67
2022/06/11 09:38:15;;;;;;;11.00;2.97;;;;;;;29.39;38.62;101666.16;5023410;28;20214;-67
2022/06/11 09:40:44;;;;;;;6.88;3.25;;;;;;;29.05;38.89;101676.50;5019461;28;20073;-67
2022/06/11 09:43:26;;;;;;;8.07;2.97;;;;;;;29.13;39.18;101668.31;5024474;28;20045;-67
2022/06/11 09:46:01;;;;;;;6.45;2.75;;;;;;;29.60;38.89;101674.44;5011804;28;20041;-67
2022/06/11 09:48:40;;;;;;;8.32;2.47;;;;;;;28.93;39.48;101676.06;5034138;28;20049;-67
2022/06/11 09:51:15;;;;;;;7.97;3.05;;;;;;;29.58;38.82;101673.81;5021290;28;20452;-67
2022/06/11 09:53:54;;;;;;;8.45;2.58;;;;;;;29.66;37.89;101672.91;5024148;28;20042;-67
2022/06/11 09:56:29;;;;;;;6.75;2.90;;;;;;;28.90;39.16;101677.22;5022429;28;20049;-67
2022/06/11 09:59:03;;;;;;;6.03;2.15;;;;;;;28.87;41.51;101669.47;5024073;28;20493;-67
2022/06/11 10:01:34;;;;;;;9.13;2.65;;;;;;;28.96;40.52;101664.88;5025422;28;20107;-67
2022/06/11 10:04:05;;;;;;;5.43;2.60;;;;;;;29.36;38.23;101671.94;5024758;28;20107;-67
2022/06/11 10:06:41;;;;;;;3.90;2.20;;;;;;;29.07;38.89;101672.59;5024033;28;20045;-67
2022/06/11 10:09:16;;;;;;;8.30;2.10;;;;;;;29.78;39.23;101677.72;5007445;28;20103;-67
2022/06/11 10:11:48;;;;;;;8.90;1.80;;;;;;;29.54;38.86;101675.19;5011294;28;20052;-67
2022/06/11 10:14:31;;;;;;;4.07;1.60;;;;;;;30.00;36.95;101680.59;5022083;28;20399;-67
2022/06/11 10:17:03;;;;;;;3.97;1.80;;;;;;;29.65;35.14;101674.75;5022949;28;20567;-67
2022/06/11 10:19:36;;;;;;;5.43;1.45;;;;;;;29.11;36.31;101682.03;5022551;28;20045;-67
2022/06/11 10:22:11;;;;;;;3.42;1.50;;;;;;;29.24;34.42;101694.94;5024522;28;20607;-67
2022/06/11 10:24:42;;;;;;;3.95;1.65;;;;;;;28.62;34.19;101685.91;5025364;28;20073;-67
2022/06/11 10:27:12;;;;;;;;;;;;;;;28.36;33.89;101687.00;5025219;28;20038;-67
2022/06/11 10:29:43;;;;;;;3.13;1.30;;;;;;;28.43;35.20;101693.38;5021600;28;19971;-67
2022/06/11 10:32:16;;;;;;;3.33;1.50;;;;;;;28.61;35.81;101687.75;5024443;28;20559;-67
2022/06/11 10:34:48;;;;;;;3.35;1.50;;;;;;;28.90;32.97;101679.91;5023112;28;20122;-67
2022/06/11 10:37:25;;;;;;;4.45;1.60;;;;;;;28.84;33.45;101686.03;5024863;28;20049;-67
2022/06/11 10:39:56;;;;;;;4.65;1.50;;;;;;;29.40;32.67;101679.50;5034816;28;20045;-67
2022/06/11 10:42:31;;;;;;;2.30;1.42;;;;;;;30.12;35.38;101681.84;5024653;28;20050;-67
2022/06/11 10:44:57;;;;;;;3.22;1.40;;;;;;;30.60;30.68;101669.69;5023984;28;20103;-67
2022/06/11 10:47:27;;;;;;;3.70;1.35;;;;;;;30.78;31.99;101679.06;5021163;28;20053;-67
2022/06/11 10:50:01;;;;;;;3.92;1.40;;;;;;;31.48;30.09;101667.63;5029502;28;20494;-67
2022/06/11 10:52:36;;;;;;;4.28;1.50;;;;;;;31.15;30.08;101669.97;5025846;28;20449;-67
2022/06/11 10:55:05;;;;;;;4.57;1.58;;;;;;;30.95;29.95;101666.16;5023629;28;20108;-67
2022/06/11 10:57:34;;;;;;;3.92;1.40;;;;;;;31.08;30.04;101668.25;5023182;28;20050;-66
2022/06/11 11:00:06;;;;;;;2.67;1.30;;;;;;;31.57;30.22;101666.47;5020406;28;20532;-67
2022/06/11 11:02:38;;;;;;;6.57;1.88;;;;;;;31.56;31.15;101658.56;5021787;28;20072;-67
2022/06/11 11:05:07;;;;;;;;;;;;;;;31.44;29.59;101670.91;5026328;28;20114;-67
2022/06/11 11:07:45;;;;;;;6.90;1.77;;;;;;;30.86;30.75;101660.00;5041127;28;19974;-67
2022/06/11 11:10:40;;;;;;;3.55;1.70;;;;;;;30.22;31.98;101661.59;5042606;28;20672;-66
2022/06/11 11:13:14;;;;;;;7.32;1.75;;;;;;;30.29;33.77;101672.53;5024240;28;20543;-66
2022/06/11 11:15:52;;;;;;;3.55;1.65;;;;;;;30.68;32.85;101670.41;5022359;28;20057;-67
2022/06/11 11:18:21;;;;;;;6.50;1.80;;;;;;;30.63;35.95;101664.72;5024334;28;20053;-67
2022/06/11 11:20:50;;;;;;;6.32;1.85;;;;;;;30.96;33.32;101669.72;5027925;28;20074;-67
2022/06/11 11:23:23;;;;;;;5.13;1.80;;;;;;;31.04;32.42;101666.94;5023006;28;20045;-67
2022/06/11 11:25:53;;;;;;;6.50;1.50;;;;;;;30.91;33.94;101667.56;5020273;28;20053;-67
2022/06/11 11:28:26;;;;;;;3.28;1.40;;;;;;;31.27;32.16;101665.72;5023254;28;20049;-66
2022/06/11 11:31:00;;;;;;;3.97;1.50;;;;;;;31.24;32.63;101665.28;5021296;28;20099;-66
2022/06/11 11:33:30;;;;;;;5.05;1.23;;;;;;;31.77;31.73;101663.97;5024443;28;20041;-67
2022/06/11 11:36:18;;;;;;;3.25;1.10;;;;;;;31.30;30.66;101665.34;5024577;28;20083;-67
2022/06/11 11:38:58;;;;;;;5.50;1.77;;;;;;;31.91;30.76;101648.63;5022552;28;20042;-67
2022/06/11 11:41:32;;;;;;;6.93;1.20;;;;;;;32.30;29.01;101651.63;5033725;28;20099;-67